^^
Datos históricos de la estación: Murcia-Puente Tocinos
Diario Informe para Marzo 20, 2019 Unidades:  Métrico    Ingés   Ambas
Diario Semanal Mensual Anual
  Máxima: Mínima: Promedio:
Temperatura: 32 °C 23.6 °C 27.6 °C
Punto de rocio: 21.8 °C 14.1 °C 18.6 °C
Humedad: 77% 39.9% 59%
Velocidad viento: 22.1km/h 0km/h 10.2km/h
Racha viento: 42.6km/h - -
Viento- - SE
Presión: 1015.4 hPa 1011.6 hPa -
Precipitación: 0.0 mm    
 
 
Tabla de datos para Marzo 20, 2019
Hora Temperatura Punto de rocio Presión Viento Velocidad viento Racha viento Humedad Intensidad lluvia(por hora) Nubes
00:04 25.6 °C 20.8 °C 1013.0 hPa NNO 3.9 km/h 8 km/h 75% 0.0 mm
00:09 25.6 °C 21 °C 1013.0 hPa NNO 3.7 km/h 8 km/h 75.7% 0.0 mm
00:14 25.6 °C 21.1 °C 1013.0 hPa NO 3.2 km/h 8 km/h 76% 0.0 mm
00:19 25.6 °C 21 °C 1013.0 hPa NNO 3 km/h 8.4 km/h 76% 0.0 mm
00:24 25.6 °C 21 °C 1013.0 hPa NNO 2.2 km/h 8 km/h 76% 0.0 mm
00:29 25.5 °C 20.9 °C 1013.0 hPa North 2.7 km/h 8.4 km/h 76% 0.0 mm
00:34 25.4 °C 20.8 °C 1013.1 hPa NNE 3.9 km/h 8.4 km/h 76% 0.0 mm
00:39 25.4 °C 20.8 °C 1013.1 hPa NNE 4.2 km/h 8 km/h 76% 0.0 mm
00:44 25.3 °C 21 °C 1013.1 hPa North 5 km/h 8 km/h 76.9% 0.0 mm
00:49 25.3 °C 21 °C 1013.3 hPa NNO 4.5 km/h 8 km/h 77% 0.0 mm
00:54 25.3 °C 21 °C 1013.3 hPa NNO 3.2 km/h 8 km/h 77% 0.0 mm
00:59 25.3 °C 21 °C 1013.3 hPa North 3.4 km/h 8 km/h 77% 0.0 mm
01:04 25.3 °C 21 °C 1013.3 hPa North 3.9 km/h 8 km/h 77% 0.0 mm
01:09 25.3 °C 21 °C 1013.2 hPa North 3.9 km/h 8 km/h 77% 0.0 mm
01:14 25.3 °C 21 °C 1013.2 hPa NNE 3.9 km/h 8 km/h 77% 0.0 mm
01:19 25.2 °C 20.9 °C 1013.2 hPa NE 4.1 km/h 8 km/h 77% 0.0 mm
01:24 25.2 °C 20.9 °C 1013.1 hPa ENE 4.7 km/h 8 km/h 77% 0.0 mm
01:29 25.2 °C 20.9 °C 1013.1 hPa ENE 4.3 km/h 8 km/h 77% 0.0 mm
01:34 25.2 °C 20.9 °C 1013.2 hPa North 3.2 km/h 7.4 km/h 77% 0.0 mm
01:39 25.3 °C 21 °C 1013.2 hPa NNO 3.2 km/h 8 km/h 77% 0.0 mm
01:44 25.3 °C 21 °C 1013.2 hPa NNO 3.2 km/h 6.4 km/h 77% 0.0 mm
01:49 25.3 °C 21 °C 1013.2 hPa NNO 3.1 km/h 6.4 km/h 77% 0.0 mm
01:54 25.3 °C 20.9 °C 1013.0 hPa NO 2.9 km/h 6.4 km/h 76.9% 0.0 mm
01:59 25.3 °C 20.7 °C 1013.0 hPa NO 3 km/h 8 km/h 76% 0.0 mm
02:04 25.3 °C 20.8 °C 1013.0 hPa ONO 3.2 km/h 6.4 km/h 76% 0.0 mm
02:09 25.3 °C 20.8 °C 1013.0 hPa ONO 3.1 km/h 5.8 km/h 76% 0.0 mm
02:14 25.3 °C 20.8 °C 1013.0 hPa ONO 2.9 km/h 6.4 km/h 76% 0.0 mm
02:19 25.3 °C 20.6 °C 1013.0 hPa ONO 2.2 km/h 3.2 km/h 75.2% 0.0 mm
02:24 25.4 °C 20.6 °C 1012.8 hPa Calm     75% 0.0 mm
02:29 25.4 °C 20.7 °C 1012.8 hPa Calm   4.7 km/h 75% 0.0 mm
02:34 25.4 °C 20.5 °C 1012.8 hPa Calm   4.8 km/h 74.4% 0.0 mm
02:39 25.4 °C 20.4 °C 1012.6 hPa Calm   3.7 km/h 74% 0.0 mm
02:44 25.4 °C 20.4 °C 1012.6 hPa Calm   3.7 km/h 74% 0.0 mm
02:49 25.4 °C 20.4 °C 1012.6 hPa Calm   3.9 km/h 74% 0.0 mm
02:54 25.4 °C 20.4 °C 1012.5 hPa Calm   7.4 km/h 74% 0.0 mm
02:59 25.3 °C 20.4 °C 1012.5 hPa ONO 0.7 km/h 8 km/h 74% 0.0 mm
03:04 25.3 °C 20.3 °C 1012.5 hPa NO 2.2 km/h 7.4 km/h 74% 0.0 mm
03:09 25.2 °C 20.1 °C 1012.4 hPa ONO 2.5 km/h 8 km/h 73.4% 0.0 mm
03:14 25.2 °C 20 °C 1012.4 hPa ONO 3.2 km/h 8 km/h 73% 0.0 mm
03:19 25.1 °C 19.9 °C 1012.4 hPa ONO 3.2 km/h 8 km/h 73% 0.0 mm
03:24 25.1 °C 19.9 °C 1012.2 hPa ONO 3.2 km/h 7.4 km/h 73% 0.0 mm
03:29 25.1 °C 19.7 °C 1012.2 hPa Oeste 2.9 km/h 8 km/h 72% 0.0 mm
03:34 25.1 °C 19.6 °C 1012.2 hPa Oeste 2.2 km/h 6.4 km/h 71.5% 0.0 mm
03:39 25.1 °C 19.4 °C 1012.1 hPa Oeste 2.2 km/h 5.6 km/h 71% 0.0 mm
03:44 25.1 °C 19.4 °C 1012.1 hPa Oeste 2.2 km/h 7.4 km/h 71% 0.0 mm
03:49 25.1 °C 19.3 °C 1012.1 hPa Oeste 2.2 km/h 8 km/h 70.2% 0.0 mm
03:54 25.2 °C 19.4 °C 1012.0 hPa Oeste 2.2 km/h   70.2% 0.0 mm
03:59 25.2 °C 19.3 °C 1012.0 hPa Oeste 1.6 km/h   70% 0.0 mm
04:04 25.2 °C 19.3 °C 1012.0 hPa Calm     70% 0.0 mm
04:09 25.2 °C 19.6 °C 1012.0 hPa Calm     71% 0.0 mm
04:14 25.2 °C 19.5 °C 1012.0 hPa Calm     71.1% 0.0 mm
04:19 25.1 °C 19.7 °C 1012.0 hPa Calm     72% 0.0 mm
04:24 25.1 °C 19.8 °C 1011.8 hPa Calm     72.3% 0.0 mm
04:29 25 °C 19.9 °C 1011.8 hPa Calm   7.6 km/h 73% 0.0 mm
04:34 24.9 °C 19.9 °C 1011.9 hPa Calm   9.3 km/h 73.9% 0.0 mm
04:39 24.9 °C 19.9 °C 1011.9 hPa SO 1 km/h 9.7 km/h 74% 0.0 mm
04:44 24.9 °C 19.9 °C 1011.9 hPa SO 3.9 km/h 8 km/h 74% 0.0 mm
04:49 24.8 °C 19.9 °C 1011.9 hPa OSO 3.9 km/h 8 km/h 74% 0.0 mm
04:54 24.8 °C 19.8 °C 1011.6 hPa OSO 3.9 km/h 8.4 km/h 74% 0.0 mm
04:59 24.7 °C 19.8 °C 1011.6 hPa OSO 4.1 km/h 11.1 km/h 74% 0.0 mm
05:04 24.7 °C 19.7 °C 1011.7 hPa OSO 4.7 km/h 12.2 km/h 73.8% 0.0 mm
05:09 24.6 °C 19.4 °C 1011.7 hPa OSO 5.4 km/h 13 km/h 73% 0.0 mm
05:14 24.5 °C 19.3 °C 1011.7 hPa SO 7.6 km/h 12.9 km/h 73% 0.0 mm
05:19 24.4 °C 19.2 °C 1011.7 hPa SO 7.3 km/h 11.3 km/h 72.8% 0.0 mm
05:24 24.4 °C 19 °C 1011.6 hPa SO 6.5 km/h 11.3 km/h 72.1% 0.0 mm
05:29 24.3 °C 19.1 °C 1011.6 hPa SO 6.5 km/h 9.7 km/h 72.8% 0.0 mm
05:34 24.3 °C 19 °C 1011.7 hPa SO 6.5 km/h 13 km/h 72.1% 0.0 mm
05:39 24.3 °C 18.9 °C 1011.7 hPa SO 6.6 km/h 12.9 km/h 72% 0.0 mm
05:44 24.3 °C 18.9 °C 1011.7 hPa SO 6.9 km/h 11.3 km/h 72% 0.0 mm
05:49 24.3 °C 18.8 °C 1011.8 hPa SSO 6.8 km/h 10 km/h 71.2% 0.0 mm
05:54 24.3 °C 18.7 °C 1011.8 hPa SO 6.5 km/h 9.7 km/h 70.7% 0.0 mm
05:59 24.2 °C 18.4 °C 1011.8 hPa OSO 6.2 km/h 11.1 km/h 69.8% 0.0 mm
06:04 24.2 °C 18.2 °C 1011.8 hPa OSO 5.8 km/h 11.9 km/h 69% 0.0 mm
06:09 24.2 °C 18.3 °C 1011.7 hPa SO 6 km/h 11.3 km/h 69.7% 0.0 mm
06:14 24.1 °C 18.3 °C 1011.7 hPa SSO 6.5 km/h 13 km/h 70% 0.0 mm
06:19 24 °C 18.2 °C 1011.8 hPa SSO 6.7 km/h 12.9 km/h 70% 0.0 mm
06:24 23.9 °C 18.1 °C 1011.8 hPa SO 7.6 km/h 13 km/h 70.2% 0.0 mm
06:29 23.8 °C 18 °C 1011.8 hPa SSO 7.4 km/h 12.9 km/h 70.1% 0.0 mm
06:34 23.8 °C 18 °C 1011.8 hPa SO 6.9 km/h 13 km/h 70% 0.0 mm
06:39 23.7 °C 17.9 °C 1011.7 hPa SSO 6.9 km/h 14.8 km/h 70% 0.0 mm
06:44 23.7 °C 17.7 °C 1011.7 hPa SSO 6.9 km/h 16.7 km/h 69.2% 0.0 mm
06:49 23.7 °C 17.7 °C 1011.8 hPa SO 7.3 km/h 16.1 km/h 69% 0.0 mm
06:54 23.7 °C 17.7 °C 1011.8 hPa SO 8.4 km/h 13 km/h 69% 0.0 mm
06:59 23.7 °C 17.6 °C 1011.8 hPa SO 8.4 km/h 14.8 km/h 68.5% 0.0 mm
07:04 23.7 °C 17.4 °C 1011.8 hPa SO 8.4 km/h 14.5 km/h 68% 0.0 mm
07:09 23.7 °C 17.2 °C 1011.8 hPa OSO 8.4 km/h 13.7 km/h 66.9% 0.0 mm
07:14 23.6 °C 16.9 °C 1011.8 hPa OSO 8.4 km/h 14.5 km/h 66% 0.0 mm
07:19 23.6 °C 16.9 °C 1011.9 hPa OSO 8.1 km/h 12.9 km/h 66.1% 0.0 mm
07:24 23.6 °C 16.9 °C 1011.9 hPa OSO 7.6 km/h 9.7 km/h 66% 0.0 mm
07:29 23.6 °C 16.9 °C 1011.9 hPa Oeste 7.1 km/h 9.7 km/h 66% 0.0 mm
07:34 23.6 °C 16.9 °C 1011.9 hPa Oeste 5.8 km/h 8 km/h 66% 0.0 mm
07:39 23.6 °C 16.8 °C 1011.9 hPa OSO 5.5 km/h 8 km/h 65.6% 0.0 mm
07:44 23.6 °C 16.6 °C 1011.9 hPa Oeste 4.7 km/h 8 km/h 65% 0.0 mm
07:49 23.6 °C 16.6 °C 1011.9 hPa Oeste 4.3 km/h 8 km/h 65% 0.0 mm
07:54 23.7 °C 16.7 °C 1011.9 hPa OSO 3.2 km/h 7.4 km/h 65% 0.0 mm
07:59 23.7 °C 16.7 °C 1011.9 hPa Oeste 3.2 km/h 8.7 km/h 65% 0.0 mm
08:04 23.8 °C 16.7 °C 1012.1 hPa OSO 3.2 km/h 11.9 km/h 64.6% 0.0 mm
08:09 23.8 °C 16.6 °C 1012.1 hPa OSO 3.9 km/h 11.3 km/h 64% 0.0 mm
08:14 23.9 °C 16.6 °C 1012.1 hPa OSO 5.8 km/h 9.7 km/h 63.6% 0.0 mm
08:19 24.1 °C 16.3 °C 1012.2 hPa OSO 5.8 km/h 11.9 km/h 61.6% 0.0 mm
08:24 24.2 °C 16.2 °C 1012.2 hPa OSO 5.8 km/h 13 km/h 61% 0.0 mm
08:29 24.3 °C 15.9 °C 1012.2 hPa SO 6 km/h 12.9 km/h 59.3% 0.0 mm
08:34 24.4 °C 15.7 °C 1012.2 hPa OSO 6.5 km/h 9.7 km/h 58.4% 0.0 mm
08:39 24.6 °C 15.9 °C 1012.2 hPa Oeste 6.1 km/h 9.7 km/h 58.3% 0.0 mm
08:44 24.7 °C 15.9 °C 1012.2 hPa OSO 5 km/h 8 km/h 58.1% 0.0 mm
08:49 24.7 °C 15.9 °C 1012.2 hPa OSO 5 km/h 9.3 km/h 58% 0.0 mm
08:54 24.8 °C 15.8 °C 1012.2 hPa SO 5 km/h 9.7 km/h 57.3% 0.0 mm
08:59 25 °C 15.7 °C 1012.2 hPa Sur 5.2 km/h 11.9 km/h 56.1% 0.0 mm
09:04 25.1 °C 15.4 °C 1012.4 hPa SSO 5.8 km/h 11.3 km/h 55% 0.0 mm
09:09 25.2 °C 15.4 °C 1012.4 hPa OSO 6.1 km/h 11.9 km/h 54.6% 0.0 mm
09:14 25.3 °C 15.3 °C 1012.4 hPa Oeste 6.9 km/h 11.3 km/h 54% 0.0 mm
09:19 25.5 °C 15.5 °C 1012.4 hPa Oeste 6.4 km/h 11.3 km/h 54% 0.0 mm
09:24 25.7 °C 15.7 °C 1012.3 hPa Oeste 5 km/h 11.1 km/h 54% 0.0 mm
09:29 25.8 °C 15.7 °C 1012.3 hPa SO 5.2 km/h 11.3 km/h 53.9% 0.0 mm
09:34 25.8 °C 15.6 °C 1012.3 hPa SO 5.8 km/h 9.7 km/h 53.5% 0.0 mm
09:39 25.9 °C 15.7 °C 1012.3 hPa SSO 5.1 km/h 8 km/h 53.4% 0.0 mm
09:44 26.2 °C 15.7 °C 1012.3 hPa SO 3.2 km/h 9.5 km/h 52.6% 0.0 mm
09:49 26.3 °C 15.7 °C 1012.3 hPa OSO 3.7 km/h 9.7 km/h 52% 0.0 mm
09:54 26.4 °C 15.5 °C 1012.3 hPa SSO 5 km/h 12.2 km/h 51.2% 0.0 mm
09:59 26.6 °C 15.6 °C 1012.3 hPa SSO 5.6 km/h 13 km/h 50.9% 0.0 mm
10:04 26.7 °C 15.4 °C 1012.5 hPa SSE 6.9 km/h 13.7 km/h 50% 0.0 mm
10:09 26.8 °C 15.5 °C 1012.5 hPa Sur 7.3 km/h 14.8 km/h 49.8% 0.0 mm
10:14 27.1 °C 15.4 °C 1012.5 hPa SO 8.4 km/h 14.5 km/h 49.1% 0.0 mm
10:19 27.3 °C 15.5 °C 1012.6 hPa Sur 8 km/h 14.8 km/h 48.7% 0.0 mm
10:24 27.3 °C 15.6 °C 1012.6 hPa Sur 6.9 km/h 14.8 km/h 49% 0.0 mm
10:29 27.3 °C 15.7 °C 1012.6 hPa SO 7.3 km/h 14.5 km/h 49% 0.0 mm
10:34 27.5 °C 15.5 °C 1012.6 hPa SO 8.4 km/h 11.3 km/h 48.1% 0.0 mm
10:39 27.8 °C 15.6 °C 1012.5 hPa OSO 7.4 km/h 8.4 km/h 47.5% 0.0 mm
10:44 28.1 °C 15.4 °C 1012.5 hPa NO 4.7 km/h 10 km/h 45.9% 0.0 mm
10:49 28.3 °C 15.1 °C 1012.5 hPa OSO 4.4 km/h 9.7 km/h 44.5% 0.0 mm
10:54 28.7 °C 14.3 °C 1012.5 hPa SSE 3.9 km/h 8 km/h 41.4% 0.0 mm
10:59 29.1 °C 14.1 °C 1012.5 hPa SSO 3.7 km/h 9.5 km/h 39.9% 0.0 mm
11:04 29.3 °C 14.5 °C 1012.5 hPa ESE 3.2 km/h 9.7 km/h 40.6% 0.0 mm
11:09 29.7 °C 14.6 °C 1012.5 hPa ONO 3.2 km/h 8 km/h 40% 0.0 mm
11:14 30 °C 14.9 °C 1012.5 hPa SE 3.2 km/h 11.1 km/h 40% 0.0 mm
11:19 30.1 °C 15.2 °C 1012.5 hPa ENE 3.7 km/h 11.3 km/h 40.4% 0.0 mm
11:24 30.1 °C 15.4 °C 1012.5 hPa NE 5 km/h 13 km/h 41.1% 0.0 mm
11:29 30 °C 15.6 °C 1012.5 hPa NE 5.9 km/h 16.7 km/h 41.7% 0.0 mm
11:34 29.8 °C 15.5 °C 1012.5 hPa NE 8.4 km/h 16.1 km/h 42.1% 0.0 mm
11:39 29.7 °C 15.6 °C 1012.5 hPa Este 8.4 km/h 12.9 km/h 42.3% 0.0 mm
11:44 29.9 °C 15.7 °C 1012.5 hPa NE 8.4 km/h 14.8 km/h 42.2% 0.0 mm
11:49 29.9 °C 15.6 °C 1012.5 hPa ENE 8.4 km/h 14.5 km/h 42.1% 0.0 mm
11:54 30 °C 15.8 °C 1012.5 hPa NE 8.4 km/h 13.7 km/h 42.2% 0.0 mm
11:59 30.3 °C 16.1 °C 1012.5 hPa ENE 7.6 km/h 14.5 km/h 42.4% 0.0 mm
12:04 30.6 °C 16 °C 1012.5 hPa Este 5.8 km/h 11.3 km/h 41.5% 0.0 mm
12:09 30.8 °C 16.3 °C 1012.5 hPa NE 5.9 km/h 17.2 km/h 41.5% 0.0 mm
12:14 30.9 °C 16.2 °C 1012.5 hPa NE 6.5 km/h 18.3 km/h 41.1% 0.0 mm
12:19 31 °C 16.3 °C 1012.5 hPa NE 7.8 km/h 22.2 km/h 41.2% 0.0 mm
12:24 30.9 °C 16.5 °C 1012.3 hPa NNE 11.1 km/h 22.5 km/h 41.8% 0.0 mm
12:29 31 °C 16.6 °C 1012.3 hPa NNE 11.3 km/h 22.5 km/h 42% 0.0 mm
12:34 31.1 °C 16.7 °C 1012.3 hPa NE 11.9 km/h 20.9 km/h 42.1% 0.0 mm
12:39 31.2 °C 16.9 °C 1012.3 hPa NE 11.4 km/h 22.5 km/h 42.4% 0.0 mm
12:44 31.3 °C 17 °C 1012.3 hPa NNE 10 km/h 22.5 km/h 42.4% 0.0 mm
12:49 31.5 °C 17.2 °C 1012.3 hPa NE 10 km/h 19.3 km/h 42.4% 0.0 mm
12:54 31.6 °C 16.9 °C 1012.2 hPa NE 10 km/h 28.2 km/h 41.2% 0.0 mm
12:59 31.7 °C 16.7 °C 1012.2 hPa NE 11.8 km/h 33.5 km/h 40.6% 0.0 mm
13:04 31.7 °C 16.6 °C 1012.3 hPa ENE 15.6 km/h 33.8 km/h 40.4% 0.0 mm
13:09 31.8 °C 16.8 °C 1012.3 hPa NE 16.3 km/h 31.5 km/h 40.6% 0.0 mm
13:14 31.8 °C 17 °C 1012.3 hPa NNE 18.4 km/h 34.3 km/h 41% 0.0 mm
13:19 31.9 °C 16.8 °C 1012.3 hPa NE 18.1 km/h 33.8 km/h 40.5% 0.0 mm
13:24 31.9 °C 16.9 °C 1012.3 hPa NE 17.2 km/h 28.6 km/h 40.8% 0.0 mm
13:29 32 °C 17.1 °C 1012.3 hPa NE 16.8 km/h 32.2 km/h 41.1% 0.0 mm
13:34 31.9 °C 18 °C 1012.5 hPa ENE 15.6 km/h 32.2 km/h 43.7% 0.0 mm
13:39 31.9 °C 18.5 °C 1012.5 hPa Este 15.8 km/h 33.3 km/h 45% 0.0 mm
13:44 31.7 °C 18.5 °C 1012.5 hPa ENE 16.4 km/h 33.8 km/h 45.5% 0.0 mm
13:49 31.4 °C 18.5 °C 1012.5 hPa ENE 16.2 km/h 33.8 km/h 46.4% 0.0 mm
13:54 31.4 °C 18.7 °C 1012.5 hPa NE 15.6 km/h 33.8 km/h 47% 0.0 mm
13:59 31.3 °C 18.6 °C 1012.5 hPa ENE 16.1 km/h 35.2 km/h 46.8% 0.0 mm
14:04 31.2 °C 18.8 °C 1012.5 hPa ENE 17.2 km/h 42 km/h 47.7% 0.0 mm
14:09 31 °C 18.9 °C 1012.3 hPa ENE 17.2 km/h 42.6 km/h 48.4% 0.0 mm
14:14 31 °C 19.2 °C 1012.3 hPa ENE 17.2 km/h 38.9 km/h 49.5% 0.0 mm
14:19 30.8 °C 19.5 °C 1012.4 hPa ENE 17.7 km/h 38.6 km/h 50.8% 0.0 mm
14:24 31 °C 19.7 °C 1012.4 hPa NE 19 km/h 38.6 km/h 51% 0.0 mm
14:29 30.6 °C 19.7 °C 1012.4 hPa NE 19.3 km/h 37.8 km/h 52.3% 0.0 mm
14:34 30.4 °C 19.6 °C 1012.5 hPa NE 20.1 km/h 37 km/h 52.6% 0.0 mm
14:39 30.4 °C 20 °C 1012.5 hPa ENE 20.6 km/h 41.2 km/h 53.8% 0.0 mm
14:44 30.6 °C 20.3 °C 1012.5 hPa NE 21.7 km/h 41.8 km/h 54.2% 0.0 mm
14:49 30.7 °C 20.4 °C 1012.7 hPa NE 20.7 km/h 35.2 km/h 54.3% 0.0 mm
14:54 30.6 °C 20.3 °C 1012.7 hPa ENE 18 km/h 35.4 km/h 54.4% 0.0 mm
14:59 30.6 °C 20.6 °C 1012.7 hPa Este 18 km/h 40.7 km/h 55% 0.0 mm
15:04 30.7 °C 20.5 °C 1012.8 hPa NE 18 km/h 40.2 km/h 54.7% 0.0 mm
15:09 30.5 °C 20.5 °C 1012.8 hPa NE 18.9 km/h 37 km/h 55.3% 0.0 mm
15:14 30.3 °C 20.6 °C 1012.8 hPa ENE 20.9 km/h 35.4 km/h 56% 0.0 mm
15:19 30.5 °C 20.7 °C 1012.9 hPa NE 20.4 km/h 35.4 km/h 56% 0.0 mm
15:24 30.5 °C 21 °C 1012.9 hPa NE 19 km/h 33.3 km/h 57.1% 0.0 mm
15:29 30.4 °C 21.2 °C 1012.9 hPa ENE 19 km/h 34.3 km/h 58.1% 0.0 mm
15:34 30.2 °C 21.1 °C 1012.9 hPa NE 19 km/h 41.2 km/h 58.4% 0.0 mm
15:39 29.8 °C 21.3 °C 1012.7 hPa NE 19.9 km/h 41.8 km/h 60.4% 0.0 mm
15:44 30.1 °C 21.7 °C 1012.7 hPa ENE 22.1 km/h 40.2 km/h 60.8% 0.0 mm
15:49 30.2 °C 21.6 °C 1012.7 hPa NE 21.3 km/h 38.9 km/h 60.2% 0.0 mm
15:54 29.8 °C 21.5 °C 1012.6 hPa NE 19 km/h 38.6 km/h 61% 0.0 mm
15:59 30 °C 21.7 °C 1012.6 hPa NE 18.4 km/h 30.6 km/h 61% 0.0 mm
16:04 29.9 °C 21.6 °C 1012.6 hPa NE 17.2 km/h 35.9 km/h 61.1% 0.0 mm
16:09 29.8 °C 21.8 °C 1012.5 hPa NE 17.9 km/h 35.9 km/h 62% 0.0 mm
16:14 29.8 °C 21.7 °C 1012.5 hPa NE 19.8 km/h 35.4 km/h 62.1% 0.0 mm
16:19 29.8 °C 21.8 °C 1012.5 hPa NE 19.6 km/h 33.8 km/h 62% 0.0 mm
16:24 29.8 °C 21.7 °C 1012.5 hPa NE 19 km/h 34.3 km/h 62% 0.0 mm
16:29 29.8 °C 21.7 °C 1012.5 hPa NE 19.2 km/h 35.2 km/h 62% 0.0 mm
16:34 29.7 °C 21.6 °C 1012.5 hPa NE 19.8 km/h 35.4 km/h 62% 0.0 mm
16:39 29.7 °C 21.7 °C 1012.4 hPa NE 19.9 km/h 33.8 km/h 62.3% 0.0 mm
16:44 29.7 °C 21.7 °C 1012.4 hPa NE 20.1 km/h 35.9 km/h 62% 0.0 mm
16:49 29.7 °C 21.4 °C 1012.4 hPa NE 19.8 km/h 35.4 km/h 61% 0.0 mm
16:54 29.8 °C 21.4 °C 1012.3 hPa ENE 19 km/h 33.3 km/h 61% 0.0 mm
16:59 29.9 °C 21.4 °C 1012.3 hPa NE 18.2 km/h 33.8 km/h 60.1% 0.0 mm
17:04 30.1 °C 21.1 °C 1012.3 hPa NE 16.4 km/h 37 km/h 58.5% 0.0 mm
17:09 30 °C 20.8 °C 1012.3 hPa NE 17.4 km/h 37 km/h 58% 0.0 mm
17:14 29.9 °C 20.7 °C 1012.3 hPa NE 20.1 km/h 33.8 km/h 58.1% 0.0 mm
17:19 30.2 °C 20.7 °C 1012.3 hPa NE 19.6 km/h 32.2 km/h 57.1% 0.0 mm
17:24 30.2 °C 20.5 °C 1012.3 hPa NE 18 km/h 33.3 km/h 56% 0.0 mm
17:29 30.2 °C 20.1 °C 1012.3 hPa NE 18.3 km/h 34.6 km/h 54.8% 0.0 mm
17:34 30.2 °C 20.1 °C 1012.3 hPa NE 19 km/h 35.4 km/h 55% 0.0 mm
17:39 30.1 °C 20 °C 1012.2 hPa NE 19.7 km/h 37 km/h 54.9% 0.0 mm
17:44 30.2 °C 19.8 °C 1012.2 hPa NE 21.7 km/h 37 km/h 53.9% 0.0 mm
17:49 30.3 °C 19.6 °C 1012.2 hPa NE 21.3 km/h 36.2 km/h 53% 0.0 mm
17:54 30.4 °C 19.8 °C 1012.2 hPa NE 20.1 km/h 37 km/h 53% 0.0 mm
17:59 30.5 °C 19.9 °C 1012.2 hPa NE 19.6 km/h 37 km/h 53% 0.0 mm
18:04 30.5 °C 19.5 °C 1012.2 hPa NE 18.4 km/h 33.8 km/h 51.8% 0.0 mm
18:09 30.6 °C 19.8 °C 1012.1 hPa NE 18 km/h 32.2 km/h 52.5% 0.0 mm
18:14 30.6 °C 19.5 °C 1012.1 hPa NE 17.2 km/h 32.3 km/h 51.6% 0.0 mm
18:19 30.4 °C 19 °C 1012.1 hPa NE 17.9 km/h 32.2 km/h 50.7% 0.0 mm
18:24 30.3 °C 19.2 °C 1012.1 hPa NE 19.8 km/h 35.9 km/h 51.5% 0.0 mm
18:29 30.3 °C 19 °C 1012.1 hPa NE 19.9 km/h 36.2 km/h 50.7% 0.0 mm
18:34 30.4 °C 18.8 °C 1012.1 hPa NE 20.1 km/h 37 km/h 49.8% 0.0 mm
18:39 30.4 °C 18.8 °C 1012.1 hPa NE 20.1 km/h 33.3 km/h 49.8% 0.0 mm
18:44 30.3 °C 18.7 °C 1012.1 hPa NE 20.1 km/h 33.8 km/h 49.8% 0.0 mm
18:49 30.4 °C 18.2 °C 1012.3 hPa NE 20.3 km/h 38.9 km/h 48.2% 0.0 mm
18:54 30.4 °C 18 °C 1012.3 hPa NE 20.9 km/h 38.6 km/h 47.5% 0.0 mm
18:59 30.6 °C 17.5 °C 1012.3 hPa NE 20.3 km/h 32.3 km/h 45.7% 0.0 mm
19:04 30.7 °C 17.2 °C 1012.3 hPa NE 19 km/h 33.8 km/h 44.5% 0.0 mm
19:09 30.8 °C 17.3 °C 1012.2 hPa NE 18.8 km/h 33.8 km/h 44.5% 0.0 mm
19:14 30.9 °C 17.4 °C 1012.2 hPa ENE 18.4 km/h 30.6 km/h 44.6% 0.0 mm
19:19 31 °C 17.4 °C 1012.3 hPa ENE 17.2 km/h 29 km/h 44.1% 0.0 mm
19:24 31 °C 17.4 °C 1012.3 hPa NE 13.7 km/h 24.1 km/h 44.1% 0.0 mm
19:29 30.9 °C 17.5 °C 1012.3 hPa NE 14.2 km/h 24.5 km/h 44.6% 0.0 mm
19:34 31 °C 17.3 °C 1012.5 hPa NE 15.6 km/h 26.2 km/h 44% 0.0 mm
19:39 30.8 °C 17.6 °C 1012.5 hPa ENE 15.1 km/h 25.7 km/h 45.1% 0.0 mm
19:44 30.7 °C 17.5 °C 1012.5 hPa ENE 13.7 km/h 29.8 km/h 45.1% 0.0 mm
19:49 30.6 °C 17.2 °C 1012.7 hPa NE 14.3 km/h 30.6 km/h 44.7% 0.0 mm
19:54 30.4 °C 17.3 °C 1012.7 hPa NE 16.1 km/h 35.2 km/h 45.4% 0.0 mm
19:59 30.3 °C 17.4 °C 1012.7 hPa NE 15.9 km/h 35.4 km/h 46% 0.0 mm
20:04 30.3 °C 17.3 °C 1013.0 hPa NE 15.6 km/h 31.7 km/h 46% 0.0 mm
20:09 30.1 °C 17.5 °C 1013.0 hPa NE 15.6 km/h 33.3 km/h 46.9% 0.0 mm
20:14 29.8 °C 17.7 °C 1013.0 hPa ENE 15.6 km/h 33.8 km/h 48.3% 0.0 mm
20:19 29.7 °C 17.8 °C 1013.2 hPa NE 15.4 km/h 25.9 km/h 49% 0.0 mm
20:24 29.6 °C 17.8 °C 1013.2 hPa NE 14.8 km/h 27.8 km/h 49.3% 0.0 mm
20:29 29.3 °C 18 °C 1013.2 hPa NE 14.6 km/h 29.6 km/h 50.4% 0.0 mm
20:34 29.2 °C 18.1 °C 1013.2 hPa NE 14 km/h 29 km/h 51.2% 0.0 mm
20:39 29.1 °C 18.2 °C 1013.2 hPa NE 14.2 km/h 27.8 km/h 52% 0.0 mm
20:44 29.1 °C 18.2 °C 1013.2 hPa NE 14.8 km/h 27.4 km/h 52% 0.0 mm
20:49 29 °C 18.1 °C 1013.4 hPa NE 14.8 km/h 29.6 km/h 52% 0.0 mm
20:54 28.9 °C 18.1 °C 1013.4 hPa NE 14.8 km/h 29.6 km/h 52% 0.0 mm
20:59 28.8 °C 18.3 °C 1013.4 hPa NE 15.3 km/h 29 km/h 52.9% 0.0 mm
21:04 28.7 °C 18.2 °C 1013.7 hPa NE 16.4 km/h 25.9 km/h 53% 0.0 mm
21:09 28.7 °C 18.4 °C 1013.7 hPa NE 16.2 km/h 25.7 km/h 53.7% 0.0 mm
21:14 28.6 °C 18.4 °C 1013.7 hPa NE 15.6 km/h 24.1 km/h 54.3% 0.0 mm
21:19 28.4 °C 18.5 °C 1013.9 hPa NE 14.9 km/h 24.1 km/h 55% 0.0 mm
21:24 28.3 °C 18.6 °C 1013.9 hPa NE 13 km/h 20.4 km/h 55.6% 0.0 mm
21:29 28.2 °C 18.7 °C 1013.9 hPa NE 12.7 km/h 21.7 km/h 56.2% 0.0 mm
21:34 28.1 °C 18.8 °C 1014.1 hPa NE 11.9 km/h 22.5 km/h 57% 0.0 mm
21:39 28 °C 18.9 °C 1014.1 hPa NE 12.4 km/h 25.9 km/h 57.7% 0.0 mm
21:44 27.8 °C 19 °C 1014.1 hPa NE 14 km/h 25.7 km/h 58.7% 0.0 mm
21:49 27.8 °C 19 °C 1014.4 hPa NE 14.6 km/h 27.8 km/h 59% 0.0 mm
21:54 27.7 °C 19.2 °C 1014.4 hPa NE 16.1 km/h 27.8 km/h 59.9% 0.0 mm
21:59 27.6 °C 19.1 °C 1014.4 hPa NE 16.1 km/h 27.8 km/h 60% 0.0 mm
22:04 27.5 °C 19.1 °C 1014.6 hPa NE 16.1 km/h 27.4 km/h 60% 0.0 mm
22:09 27.4 °C 19 °C 1014.6 hPa NE 15.8 km/h 24.1 km/h 60.2% 0.0 mm
22:14 27.4 °C 19.2 °C 1014.6 hPa NE 14.8 km/h 24.1 km/h 61% 0.0 mm
22:19 27.3 °C 19.1 °C 1014.8 hPa NE 14.3 km/h 22.5 km/h 61% 0.0 mm
22:24 27.3 °C 19.1 °C 1014.8 hPa NE 13 km/h 22.2 km/h 61% 0.0 mm
22:29 27.2 °C 19 °C 1014.8 hPa NE 12.8 km/h 22.5 km/h 61% 0.0 mm
22:34 27.2 °C 19 °C 1015.0 hPa NE 12.2 km/h 20.9 km/h 61% 0.0 mm
22:39 27.2 °C 19 °C 1015.0 hPa NE 11.9 km/h 18.5 km/h 61% 0.0 mm
22:44 27.1 °C 18.9 °C 1015.0 hPa NE 11.1 km/h 19.3 km/h 61% 0.0 mm
22:49 27.1 °C 19 °C 1015.1 hPa NE 11.1 km/h 19.3 km/h 61% 0.0 mm
22:54 27.1 °C 18.9 °C 1015.1 hPa NE 11.1 km/h 19.3 km/h 61.1% 0.0 mm
22:59 27 °C 19 °C 1015.1 hPa NE 11.3 km/h 19.3 km/h 61.7% 0.0 mm
23:04 26.9 °C 19 °C 1015.2 hPa NE 11.9 km/h 16.7 km/h 62% 0.0 mm
23:09 26.9 °C 19 °C 1015.2 hPa NE 11.3 km/h 16.4 km/h 62% 0.0 mm
23:14 26.8 °C 18.9 °C 1015.2 hPa NE 9.5 km/h 16.7 km/h 62% 0.0 mm
23:19 26.8 °C 18.9 °C 1015.3 hPa NE 9.6 km/h 16.1 km/h 62% 0.0 mm
23:24 26.7 °C 18.8 °C 1015.3 hPa NE 10 km/h 14.8 km/h 62% 0.0 mm
23:29 26.7 °C 18.8 °C 1015.3 hPa NE 9.6 km/h 16.7 km/h 62% 0.0 mm
23:34 26.7 °C 18.8 °C 1015.3 hPa NE 8.7 km/h 16.7 km/h 62% 0.0 mm
23:39 26.7 °C 18.7 °C 1015.3 hPa NNE 8.7 km/h 16.7 km/h 61.6% 0.0 mm
23:44 26.7 °C 18.6 °C 1015.3 hPa NE 8.7 km/h 16.1 km/h 61% 0.0 mm
23:49 26.7 °C 18.6 °C 1015.4 hPa NE 8.6 km/h 22.2 km/h 61% 0.0 mm
23:54 26.7 °C 18.6 °C 1015.4 hPa NE 8.4 km/h 22.5 km/h 61% 0.0 mm
23:59 26.7 °C 18.6 °C 1015.4 hPa NE 8.1 km/h 14.5 km/h 61% 0.0 mm
Murcia-Puente Tocinos, España
Compliments of Weather Underground - 3.5 mb

La estación de MeteoMurcia.com, publica sus datos en los siguientes proyectos:

Weather Underground PWS IMURCIAP2 Meteoclimatic www.awekas.at

W3Counter
Web Analytics